sensor_id;sensor_type;location;lat;lon;timestamp;temperature;humidity
53748;DHT22;39655;53.210;5.768;2022-12-16T00:02:14;1.10;97.00
53748;DHT22;39655;53.210;5.768;2022-12-16T00:04:40;1.10;96.90
53748;DHT22;39655;53.210;5.768;2022-12-16T00:07:06;1.00;96.90
53748;DHT22;39655;53.210;5.768;2022-12-16T00:09:31;1.00;96.90
53748;DHT22;39655;53.210;5.768;2022-12-16T00:11:57;1.00;96.90
53748;DHT22;39655;53.210;5.768;2022-12-16T00:14:23;0.90;96.90
53748;DHT22;39655;53.210;5.768;2022-12-16T00:16:49;0.90;96.80
53748;DHT22;39655;53.210;5.768;2022-12-16T00:19:14;0.80;96.80
53748;DHT22;39655;53.210;5.768;2022-12-16T00:21:40;0.80;96.80
53748;DHT22;39655;53.210;5.768;2022-12-16T00:24:06;0.80;96.80
53748;DHT22;39655;53.210;5.768;2022-12-16T00:26:32;0.80;96.70
53748;DHT22;39655;53.210;5.768;2022-12-16T00:28:57;0.80;96.60
53748;DHT22;39655;53.210;5.768;2022-12-16T00:31:23;0.80;96.50
53748;DHT22;39655;53.210;5.768;2022-12-16T00:33:49;0.80;96.40
53748;DHT22;39655;53.210;5.768;2022-12-16T00:36:17;0.70;96.20
53748;DHT22;39655;53.210;5.768;2022-12-16T00:38:43;0.70;96.20
53748;DHT22;39655;53.210;5.768;2022-12-16T00:41:08;0.70;96.00
53748;DHT22;39655;53.210;5.768;2022-12-16T00:43:34;0.70;95.70
53748;DHT22;39655;53.210;5.768;2022-12-16T00:46:00;0.70;95.60
53748;DHT22;39655;53.210;5.768;2022-12-16T00:48:25;0.70;95.40
53748;DHT22;39655;53.210;5.768;2022-12-16T00:50:53;0.70;94.90
53748;DHT22;39655;53.210;5.768;2022-12-16T00:53:20;0.70;94.80
53748;DHT22;39655;53.210;5.768;2022-12-16T00:55:46;0.60;94.40
53748;DHT22;39655;53.210;5.768;2022-12-16T00:58:12;0.70;94.20
53748;DHT22;39655;53.210;5.768;2022-12-16T01:00:38;0.70;93.60
53748;DHT22;39655;53.210;5.768;2022-12-16T01:03:04;0.70;93.50
53748;DHT22;39655;53.210;5.768;2022-12-16T01:05:30;0.70;93.50
53748;DHT22;39655;53.210;5.768;2022-12-16T01:07:56;0.70;93.50
53748;DHT22;39655;53.210;5.768;2022-12-16T01:10:23;0.70;93.40
53748;DHT22;39655;53.210;5.768;2022-12-16T01:12:52;0.70;93.30
53748;DHT22;39655;53.210;5.768;2022-12-16T01:15:18;0.60;93.30
53748;DHT22;39655;53.210;5.768;2022-12-16T01:17:44;0.70;93.30
53748;DHT22;39655;53.210;5.768;2022-12-16T01:20:11;0.70;93.30
53748;DHT22;39655;53.210;5.768;2022-12-16T01:22:37;0.70;93.10
53748;DHT22;39655;53.210;5.768;2022-12-16T01:25:03;0.70;93.10
53748;DHT22;39655;53.210;5.768;2022-12-16T01:27:30;0.70;93.00
53748;DHT22;39655;53.210;5.768;2022-12-16T01:29:55;0.70;93.00
53748;DHT22;39655;53.210;5.768;2022-12-16T01:32:21;0.70;93.10
53748;DHT22;39655;53.210;5.768;2022-12-16T01:34:50;0.70;93.20
53748;DHT22;39655;53.210;5.768;2022-12-16T01:37:16;0.70;93.20
53748;DHT22;39655;53.210;5.768;2022-12-16T01:39:42;0.70;93.30
53748;DHT22;39655;53.210;5.768;2022-12-16T01:42:12;0.70;93.30
53748;DHT22;39655;53.210;5.768;2022-12-16T01:44:42;0.70;93.40
53748;DHT22;39655;53.210;5.768;2022-12-16T01:47:44;0.70;93.40
53748;DHT22;39655;53.210;5.768;2022-12-16T01:50:05;0.60;93.40
53748;DHT22;39655;53.210;5.768;2022-12-16T01:52:39;0.60;93.40
53748;DHT22;39655;53.210;5.768;2022-12-16T01:55:15;0.60;93.40
53748;DHT22;39655;53.210;5.768;2022-12-16T02:00:32;0.50;93.30
53748;DHT22;39655;53.210;5.768;2022-12-16T02:02:58;0.50;93.30
53748;DHT22;39655;53.210;5.768;2022-12-16T02:05:25;0.50;93.30
53748;DHT22;39655;53.210;5.768;2022-12-16T02:07:55;0.50;93.30
53748;DHT22;39655;53.210;5.768;2022-12-16T02:24:50;0.50;92.80
53748;DHT22;39655;53.210;5.768;2022-12-16T02:30:36;0.50;92.50
53748;DHT22;39655;53.210;5.768;2022-12-16T02:36:01;0.50;92.20
53748;DHT22;39655;53.210;5.768;2022-12-16T02:38:41;0.50;91.90
53748;DHT22;39655;53.210;5.768;2022-12-16T02:41:16;0.50;91.80
53748;DHT22;39655;53.210;5.768;2022-12-16T02:43:54;0.50;91.30
53748;DHT22;39655;53.210;5.768;2022-12-16T03:22:25;0.80;90.80
53748;DHT22;39655;53.210;5.768;2022-12-16T03:24:52;0.80;90.80
53748;DHT22;39655;53.210;5.768;2022-12-16T03:27:25;0.80;90.90
53748;DHT22;39655;53.210;5.768;2022-12-16T03:30:05;0.80;91.00
53748;DHT22;39655;53.210;5.768;2022-12-16T03:32:56;0.90;90.90
53748;DHT22;39655;53.210;5.768;2022-12-16T03:35:36;0.90;91.00
53748;DHT22;39655;53.210;5.768;2022-12-16T03:38:05;0.80;91.00
53748;DHT22;39655;53.210;5.768;2022-12-16T03:40:33;0.80;91.00
53748;DHT22;39655;53.210;5.768;2022-12-16T03:43:00;0.80;91.00
53748;DHT22;39655;53.210;5.768;2022-12-16T03:45:36;0.80;90.80
53748;DHT22;39655;53.210;5.768;2022-12-16T03:48:06;0.80;90.80
53748;DHT22;39655;53.210;5.768;2022-12-16T03:50:34;0.80;90.70
53748;DHT22;39655;53.210;5.768;2022-12-16T03:53:00;0.80;90.50
53748;DHT22;39655;53.210;5.768;2022-12-16T03:55:27;0.70;90.20
53748;DHT22;39655;53.210;5.768;2022-12-16T03:57:53;0.80;90.20
53748;DHT22;39655;53.210;5.768;2022-12-16T04:00:19;0.80;89.90
53748;DHT22;39655;53.210;5.768;2022-12-16T04:02:45;0.70;89.80
53748;DHT22;39655;53.210;5.768;2022-12-16T04:05:11;0.80;89.50
53748;DHT22;39655;53.210;5.768;2022-12-16T04:07:37;0.80;89.30
53748;DHT22;39655;53.210;5.768;2022-12-16T04:10:04;0.80;89.20
53748;DHT22;39655;53.210;5.768;2022-12-16T04:12:30;0.90;88.60
53748;DHT22;39655;53.210;5.768;2022-12-16T04:15:19;1.00;88.60
53748;DHT22;39655;53.210;5.768;2022-12-16T04:18:05;1.00;88.90
53748;DHT22;39655;53.210;5.768;2022-12-16T04:20:52;1.00;88.80
53748;DHT22;39655;53.210;5.768;2022-12-16T04:23:46;1.00;89.00
53748;DHT22;39655;53.210;5.768;2022-12-16T04:26:31;1.00;89.10
53748;DHT22;39655;53.210;5.768;2022-12-16T04:29:17;1.10;89.20
53748;DHT22;39655;53.210;5.768;2022-12-16T04:31:42;1.10;89.20
53748;DHT22;39655;53.210;5.768;2022-12-16T04:34:08;1.10;89.30
53748;DHT22;39655;53.210;5.768;2022-12-16T04:36:58;1.10;89.50
53748;DHT22;39655;53.210;5.768;2022-12-16T04:39:44;1.10;89.60
53748;DHT22;39655;53.210;5.768;2022-12-16T04:42:29;1.10;89.70
53748;DHT22;39655;53.210;5.768;2022-12-16T04:45:13;1.10;89.70
53748;DHT22;39655;53.210;5.768;2022-12-16T04:47:57;1.10;89.60
53748;DHT22;39655;53.210;5.768;2022-12-16T04:50:43;1.10;89.60
53748;DHT22;39655;53.210;5.768;2022-12-16T04:53:28;1.10;89.60
53748;DHT22;39655;53.210;5.768;2022-12-16T04:56:12;1.10;89.50
53748;DHT22;39655;53.210;5.768;2022-12-16T04:58:57;1.10;89.50
53748;DHT22;39655;53.210;5.768;2022-12-16T05:01:41;1.10;89.40
53748;DHT22;39655;53.210;5.768;2022-12-16T05:04:26;1.10;89.50
53748;DHT22;39655;53.210;5.768;2022-12-16T05:07:10;1.10;89.50
53748;DHT22;39655;53.210;5.768;2022-12-16T05:09:55;1.20;89.40
53748;DHT22;39655;53.210;5.768;2022-12-16T05:12:39;1.10;89.40
53748;DHT22;39655;53.210;5.768;2022-12-16T05:15:24;1.20;89.50
53748;DHT22;39655;53.210;5.768;2022-12-16T05:18:13;1.20;89.60
53748;DHT22;39655;53.210;5.768;2022-12-16T05:20:58;1.20;89.80
53748;DHT22;39655;53.210;5.768;2022-12-16T05:23:43;1.20;89.80
53748;DHT22;39655;53.210;5.768;2022-12-16T05:26:28;1.20;89.80
53748;DHT22;39655;53.210;5.768;2022-12-16T05:29:12;1.20;89.90
53748;DHT22;39655;53.210;5.768;2022-12-16T05:31:56;1.20;89.80
53748;DHT22;39655;53.210;5.768;2022-12-16T05:34:41;1.20;89.40
53748;DHT22;39655;53.210;5.768;2022-12-16T05:37:25;1.20;89.50
53748;DHT22;39655;53.210;5.768;2022-12-16T05:40:10;1.20;89.60
53748;DHT22;39655;53.210;5.768;2022-12-16T05:42:54;1.20;89.50
53748;DHT22;39655;53.210;5.768;2022-12-16T05:45:39;1.20;89.40
53748;DHT22;39655;53.210;5.768;2022-12-16T05:48:23;1.10;89.40
53748;DHT22;39655;53.210;5.768;2022-12-16T05:51:11;1.10;89.50
53748;DHT22;39655;53.210;5.768;2022-12-16T05:54:13;1.10;89.50
53748;DHT22;39655;53.210;5.768;2022-12-16T05:57:07;1.10;89.60
53748;DHT22;39655;53.210;5.768;2022-12-16T05:59:52;1.00;89.60
53748;DHT22;39655;53.210;5.768;2022-12-16T06:02:36;1.00;89.70
53748;DHT22;39655;53.210;5.768;2022-12-16T06:05:21;1.00;89.90
53748;DHT22;39655;53.210;5.768;2022-12-16T06:08:05;1.00;90.10
53748;DHT22;39655;53.210;5.768;2022-12-16T06:10:50;1.00;90.20
53748;DHT22;39655;53.210;5.768;2022-12-16T06:13:34;1.00;90.50
53748;DHT22;39655;53.210;5.768;2022-12-16T06:16:18;1.00;90.70
53748;DHT22;39655;53.210;5.768;2022-12-16T06:19:03;1.00;90.80
53748;DHT22;39655;53.210;5.768;2022-12-16T06:21:47;0.90;91.10
53748;DHT22;39655;53.210;5.768;2022-12-16T06:24:31;0.90;91.20
53748;DHT22;39655;53.210;5.768;2022-12-16T06:27:16;0.90;91.30
53748;DHT22;39655;53.210;5.768;2022-12-16T06:30:00;0.90;91.30
53748;DHT22;39655;53.210;5.768;2022-12-16T06:32:47;0.90;91.30
53748;DHT22;39655;53.210;5.768;2022-12-16T06:35:31;0.90;91.20
53748;DHT22;39655;53.210;5.768;2022-12-16T06:38:15;0.90;91.20
53748;DHT22;39655;53.210;5.768;2022-12-16T06:40:59;0.90;91.10
53748;DHT22;39655;53.210;5.768;2022-12-16T06:43:43;0.80;91.10
53748;DHT22;39655;53.210;5.768;2022-12-16T06:46:28;0.80;91.20
53748;DHT22;39655;53.210;5.768;2022-12-16T06:49:12;0.80;91.30
53748;DHT22;39655;53.210;5.768;2022-12-16T06:51:57;0.80;91.30
53748;DHT22;39655;53.210;5.768;2022-12-16T06:54:41;0.70;91.40
53748;DHT22;39655;53.210;5.768;2022-12-16T06:57:25;0.70;91.40
53748;DHT22;39655;53.210;5.768;2022-12-16T07:00:10;0.60;91.40
53748;DHT22;39655;53.210;5.768;2022-12-16T07:02:54;0.50;91.50
53748;DHT22;39655;53.210;5.768;2022-12-16T07:05:38;0.50;91.60
53748;DHT22;39655;53.210;5.768;2022-12-16T07:08:25;0.40;91.70
53748;DHT22;39655;53.210;5.768;2022-12-16T07:11:10;0.40;91.80
53748;DHT22;39655;53.210;5.768;2022-12-16T07:13:54;0.30;91.90
53748;DHT22;39655;53.210;5.768;2022-12-16T07:16:39;0.20;92.00
53748;DHT22;39655;53.210;5.768;2022-12-16T07:19:28;0.30;92.30
53748;DHT22;39655;53.210;5.768;2022-12-16T07:22:12;0.30;92.40
53748;DHT22;39655;53.210;5.768;2022-12-16T07:24:56;0.30;92.50
53748;DHT22;39655;53.210;5.768;2022-12-16T07:27:47;0.20;92.50
53748;DHT22;39655;53.210;5.768;2022-12-16T07:30:32;0.30;92.60
53748;DHT22;39655;53.210;5.768;2022-12-16T07:33:16;0.30;92.60
53748;DHT22;39655;53.210;5.768;2022-12-16T07:36:00;0.30;92.70
53748;DHT22;39655;53.210;5.768;2022-12-16T07:39:04;0.30;92.80
53748;DHT22;39655;53.210;5.768;2022-12-16T07:41:49;0.30;93.10
53748;DHT22;39655;53.210;5.768;2022-12-16T07:44:33;0.40;93.20
53748;DHT22;39655;53.210;5.768;2022-12-16T07:47:17;0.40;93.40
53748;DHT22;39655;53.210;5.768;2022-12-16T07:50:02;0.50;93.60
53748;DHT22;39655;53.210;5.768;2022-12-16T07:52:56;0.50;93.80
53748;DHT22;39655;53.210;5.768;2022-12-16T07:55:40;0.60;94.00
53748;DHT22;39655;53.210;5.768;2022-12-16T07:58:24;0.60;94.10
53748;DHT22;39655;53.210;5.768;2022-12-16T08:01:09;0.60;94.20
53748;DHT22;39655;53.210;5.768;2022-12-16T08:03:53;0.70;94.40
53748;DHT22;39655;53.210;5.768;2022-12-16T08:06:37;0.70;94.40
53748;DHT22;39655;53.210;5.768;2022-12-16T08:09:22;0.70;94.50
53748;DHT22;39655;53.210;5.768;2022-12-16T08:12:06;0.80;94.50
53748;DHT22;39655;53.210;5.768;2022-12-16T08:14:51;0.80;94.60
53748;DHT22;39655;53.210;5.768;2022-12-16T08:17:35;0.80;94.50
53748;DHT22;39655;53.210;5.768;2022-12-16T08:20:19;0.90;94.40
53748;DHT22;39655;53.210;5.768;2022-12-16T08:23:04;0.90;94.20
53748;DHT22;39655;53.210;5.768;2022-12-16T08:25:48;0.90;94.00
53748;DHT22;39655;53.210;5.768;2022-12-16T08:28:33;1.00;93.90
53748;DHT22;39655;53.210;5.768;2022-12-16T08:31:18;1.10;93.60
53748;DHT22;39655;53.210;5.768;2022-12-16T08:34:02;1.10;93.40
53748;DHT22;39655;53.210;5.768;2022-12-16T08:36:46;1.10;93.10
53748;DHT22;39655;53.210;5.768;2022-12-16T08:39:30;1.20;92.60
53748;DHT22;39655;53.210;5.768;2022-12-16T08:42:15;1.20;92.60
53748;DHT22;39655;53.210;5.768;2022-12-16T08:45:01;1.30;92.50
53748;DHT22;39655;53.210;5.768;2022-12-16T08:47:45;1.20;92.30
53748;DHT22;39655;53.210;5.768;2022-12-16T08:50:29;1.30;91.40
53748;DHT22;39655;53.210;5.768;2022-12-16T08:53:14;1.30;91.10
53748;DHT22;39655;53.210;5.768;2022-12-16T08:55:58;1.30;90.70
53748;DHT22;39655;53.210;5.768;2022-12-16T08:58:42;1.40;90.70
53748;DHT22;39655;53.210;5.768;2022-12-16T09:01:26;1.30;90.40
53748;DHT22;39655;53.210;5.768;2022-12-16T09:04:11;1.30;90.40
53748;DHT22;39655;53.210;5.768;2022-12-16T09:06:55;1.40;90.50
53748;DHT22;39655;53.210;5.768;2022-12-16T09:09:40;1.40;90.20
53748;DHT22;39655;53.210;5.768;2022-12-16T09:12:24;1.40;90.20
53748;DHT22;39655;53.210;5.768;2022-12-16T09:15:08;1.40;89.90
53748;DHT22;39655;53.210;5.768;2022-12-16T09:17:54;1.40;89.50
53748;DHT22;39655;53.210;5.768;2022-12-16T09:20:38;1.50;89.00
53748;DHT22;39655;53.210;5.768;2022-12-16T09:23:22;1.50;88.90
53748;DHT22;39655;53.210;5.768;2022-12-16T09:26:07;1.60;89.00
53748;DHT22;39655;53.210;5.768;2022-12-16T09:28:51;1.50;89.20
53748;DHT22;39655;53.210;5.768;2022-12-16T09:31:35;1.60;89.40
53748;DHT22;39655;53.210;5.768;2022-12-16T09:34:20;1.50;89.60
53748;DHT22;39655;53.210;5.768;2022-12-16T09:37:04;1.60;89.90
53748;DHT22;39655;53.210;5.768;2022-12-16T09:39:48;1.50;89.80
53748;DHT22;39655;53.210;5.768;2022-12-16T09:43:00;1.60;89.90
53748;DHT22;39655;53.210;5.768;2022-12-16T09:46:02;1.60;90.00
53748;DHT22;39655;53.210;5.768;2022-12-16T09:52:15;1.60;90.00
53748;DHT22;39655;53.210;5.768;2022-12-16T09:55:28;1.70;90.10
53748;DHT22;39655;53.210;5.768;2022-12-16T09:58:14;1.70;90.20
53748;DHT22;39655;53.210;5.768;2022-12-16T10:01:00;1.70;90.40
53748;DHT22;39655;53.210;5.768;2022-12-16T10:03:44;1.70;90.60
53748;DHT22;39655;53.210;5.768;2022-12-16T10:06:41;1.70;90.60
53748;DHT22;39655;53.210;5.768;2022-12-16T10:09:50;1.70;90.70
53748;DHT22;39655;53.210;5.768;2022-12-16T10:24:56;1.90;91.20
53748;DHT22;39655;53.210;5.768;2022-12-16T10:27:45;1.90;91.30
53748;DHT22;39655;53.210;5.768;2022-12-16T10:30:30;1.90;91.30
53748;DHT22;39655;53.210;5.768;2022-12-16T10:33:15;1.90;91.30
53748;DHT22;39655;53.210;5.768;2022-12-16T10:36:01;2.00;91.40
53748;DHT22;39655;53.210;5.768;2022-12-16T10:38:53;2.00;91.40
53748;DHT22;39655;53.210;5.768;2022-12-16T10:41:42;2.00;91.50
53748;DHT22;39655;53.210;5.768;2022-12-16T10:44:48;2.00;91.50
53748;DHT22;39655;53.210;5.768;2022-12-16T10:47:33;2.00;91.50
53748;DHT22;39655;53.210;5.768;2022-12-16T10:50:18;2.00;91.50
53748;DHT22;39655;53.210;5.768;2022-12-16T10:53:10;2.10;91.70
53748;DHT22;39655;53.210;5.768;2022-12-16T10:59:06;2.10;92.00
53748;DHT22;39655;53.210;5.768;2022-12-16T11:04:45;2.20;92.40
53748;DHT22;39655;53.210;5.768;2022-12-16T11:10:26;2.20;92.50
53748;DHT22;39655;53.210;5.768;2022-12-16T11:13:17;2.20;92.60
53748;DHT22;39655;53.210;5.768;2022-12-16T11:19:22;2.20;92.80
53748;DHT22;39655;53.210;5.768;2022-12-16T11:22:26;2.20;92.80
53748;DHT22;39655;53.210;5.768;2022-12-16T11:28:16;2.20;92.90
53748;DHT22;39655;53.210;5.768;2022-12-16T11:31:10;2.30;93.00
53748;DHT22;39655;53.210;5.768;2022-12-16T11:33:57;2.30;93.10
53748;DHT22;39655;53.210;5.768;2022-12-16T11:37:02;2.30;93.10
53748;DHT22;39655;53.210;5.768;2022-12-16T11:39:46;2.30;93.20
53748;DHT22;39655;53.210;5.768;2022-12-16T11:42:31;2.40;93.20
53748;DHT22;39655;53.210;5.768;2022-12-16T11:45:18;2.40;93.10
53748;DHT22;39655;53.210;5.768;2022-12-16T11:51:14;2.40;93.20
53748;DHT22;39655;53.210;5.768;2022-12-16T11:57:06;2.40;93.20
53748;DHT22;39655;53.210;5.768;2022-12-16T12:00:00;2.40;93.10
53748;DHT22;39655;53.210;5.768;2022-12-16T12:02:53;2.30;93.00
53748;DHT22;39655;53.210;5.768;2022-12-16T12:11:35;2.50;93.40
53748;DHT22;39655;53.210;5.768;2022-12-16T12:23:05;2.80;93.40
53748;DHT22;39655;53.210;5.768;2022-12-16T12:26:10;2.90;93.50
53748;DHT22;39655;53.210;5.768;2022-12-16T12:32:56;3.10;93.30
53748;DHT22;39655;53.210;5.768;2022-12-16T12:35:54;3.20;93.00
53748;DHT22;39655;53.210;5.768;2022-12-16T12:51:34;3.20;92.00
53748;DHT22;39655;53.210;5.768;2022-12-16T12:54:57;3.20;91.80
53748;DHT22;39655;53.210;5.768;2022-12-16T12:57:45;3.20;91.60
53748;DHT22;39655;53.210;5.768;2022-12-16T13:00:35;3.20;91.60
53748;DHT22;39655;53.210;5.768;2022-12-16T13:03:39;3.10;91.60
53748;DHT22;39655;53.210;5.768;2022-12-16T13:06:25;3.10;91.50
53748;DHT22;39655;53.210;5.768;2022-12-16T13:09:33;3.10;91.50
53748;DHT22;39655;53.210;5.768;2022-12-16T13:12:24;3.10;91.50
53748;DHT22;39655;53.210;5.768;2022-12-16T13:18:26;3.00;91.10
53748;DHT22;39655;53.210;5.768;2022-12-16T13:24:41;2.80;91.20
53748;DHT22;39655;53.210;5.768;2022-12-16T13:27:27;2.70;91.30
53748;DHT22;39655;53.210;5.768;2022-12-16T13:36:03;2.70;91.70
53748;DHT22;39655;53.210;5.768;2022-12-16T13:38:50;2.70;92.00
53748;DHT22;39655;53.210;5.768;2022-12-16T13:50:41;2.80;92.00
53748;DHT22;39655;53.210;5.768;2022-12-16T13:53:44;2.80;92.00
53748;DHT22;39655;53.210;5.768;2022-12-16T13:56:35;2.70;92.10
53748;DHT22;39655;53.210;5.768;2022-12-16T13:59:26;2.70;92.20
53748;DHT22;39655;53.210;5.768;2022-12-16T14:02:30;2.60;92.20
53748;DHT22;39655;53.210;5.768;2022-12-16T14:05:22;2.50;92.10
53748;DHT22;39655;53.210;5.768;2022-12-16T14:08:16;2.40;92.10
53748;DHT22;39655;53.210;5.768;2022-12-16T14:11:04;2.40;92.10
53748;DHT22;39655;53.210;5.768;2022-12-16T14:13:57;2.30;92.10
53748;DHT22;39655;53.210;5.768;2022-12-16T14:16:51;2.30;92.30
53748;DHT22;39655;53.210;5.768;2022-12-16T14:19:48;2.30;92.60
53748;DHT22;39655;53.210;5.768;2022-12-16T14:23:12;2.30;92.70
53748;DHT22;39655;53.210;5.768;2022-12-16T14:26:02;2.20;92.70
53748;DHT22;39655;53.210;5.768;2022-12-16T14:28:47;2.20;92.80
53748;DHT22;39655;53.210;5.768;2022-12-16T14:31:42;2.20;92.90
53748;DHT22;39655;53.210;5.768;2022-12-16T14:34:31;2.20;92.90
53748;DHT22;39655;53.210;5.768;2022-12-16T14:37:20;2.20;92.90
53748;DHT22;39655;53.210;5.768;2022-12-16T14:40:24;2.20;93.00
53748;DHT22;39655;53.210;5.768;2022-12-16T14:43:12;2.10;93.20
53748;DHT22;39655;53.210;5.768;2022-12-16T14:46:02;2.10;93.20
53748;DHT22;39655;53.210;5.768;2022-12-16T14:48:48;2.10;93.20
53748;DHT22;39655;53.210;5.768;2022-12-16T14:51:46;2.00;93.30
53748;DHT22;39655;53.210;5.768;2022-12-16T14:54:34;2.00;93.50
53748;DHT22;39655;53.210;5.768;2022-12-16T14:57:26;1.90;93.50
53748;DHT22;39655;53.210;5.768;2022-12-16T15:00:19;1.90;93.50
53748;DHT22;39655;53.210;5.768;2022-12-16T15:06:01;1.80;93.50
53748;DHT22;39655;53.210;5.768;2022-12-16T15:08:54;1.80;93.50
53748;DHT22;39655;53.210;5.768;2022-12-16T15:11:41;1.70;93.50
53748;DHT22;39655;53.210;5.768;2022-12-16T15:14:30;1.70;93.40
53748;DHT22;39655;53.210;5.768;2022-12-16T15:17:56;1.60;93.30
53748;DHT22;39655;53.210;5.768;2022-12-16T15:20:52;1.50;93.40
53748;DHT22;39655;53.210;5.768;2022-12-16T15:23:42;1.40;93.50
53748;DHT22;39655;53.210;5.768;2022-12-16T15:26:30;1.40;93.60
53748;DHT22;39655;53.210;5.768;2022-12-16T15:29:35;1.30;93.50
53748;DHT22;39655;53.210;5.768;2022-12-16T15:32:29;1.20;93.50
53748;DHT22;39655;53.210;5.768;2022-12-16T15:40:56;1.10;93.50
53748;DHT22;39655;53.210;5.768;2022-12-16T15:43:40;1.00;93.50
53748;DHT22;39655;53.210;5.768;2022-12-16T15:46:28;1.00;93.50
53748;DHT22;39655;53.210;5.768;2022-12-16T15:49:20;0.90;93.50
53748;DHT22;39655;53.210;5.768;2022-12-16T15:55:34;0.80;93.50
53748;DHT22;39655;53.210;5.768;2022-12-16T15:58:28;0.70;93.60
53748;DHT22;39655;53.210;5.768;2022-12-16T16:01:15;0.70;93.70
53748;DHT22;39655;53.210;5.768;2022-12-16T16:04:00;0.60;93.80
53748;DHT22;39655;53.210;5.768;2022-12-16T16:06:47;0.60;93.80
53748;DHT22;39655;53.210;5.768;2022-12-16T16:09:33;0.60;93.80
53748;DHT22;39655;53.210;5.768;2022-12-16T16:12:19;0.50;93.80
53748;DHT22;39655;53.210;5.768;2022-12-16T16:15:05;0.50;93.80
53748;DHT22;39655;53.210;5.768;2022-12-16T16:18:04;0.40;93.80
53748;DHT22;39655;53.210;5.768;2022-12-16T16:20:49;0.40;93.80
53748;DHT22;39655;53.210;5.768;2022-12-16T16:23:37;0.40;93.90
53748;DHT22;39655;53.210;5.768;2022-12-16T16:26:24;0.30;93.90
53748;DHT22;39655;53.210;5.768;2022-12-16T16:29:09;0.30;93.90
53748;DHT22;39655;53.210;5.768;2022-12-16T16:31:56;0.20;93.90
53748;DHT22;39655;53.210;5.768;2022-12-16T16:34:41;0.20;93.90
53748;DHT22;39655;53.210;5.768;2022-12-16T16:37:30;0.10;93.90
53748;DHT22;39655;53.210;5.768;2022-12-16T16:40:35;0.10;94.00
53748;DHT22;39655;53.210;5.768;2022-12-16T16:43:21;0.10;94.00
53748;DHT22;39655;53.210;5.768;2022-12-16T16:46:39;0.00;93.90
53748;DHT22;39655;53.210;5.768;2022-12-16T16:49:30;0.00;93.90
53748;DHT22;39655;53.210;5.768;2022-12-16T16:52:19;0.00;93.90
53748;DHT22;39655;53.210;5.768;2022-12-16T16:55:05;0.00;94.00
53748;DHT22;39655;53.210;5.768;2022-12-16T16:57:52;0.00;94.10
53748;DHT22;39655;53.210;5.768;2022-12-16T17:00:37;-3276.70;94.10
53748;DHT22;39655;53.210;5.768;2022-12-16T17:03:30;-3276.70;94.10
53748;DHT22;39655;53.210;5.768;2022-12-16T17:06:17;-3276.70;94.10
53748;DHT22;39655;53.210;5.768;2022-12-16T17:09:01;-3276.60;94.10
53748;DHT22;39655;53.210;5.768;2022-12-16T17:11:46;-3276.60;94.10
53748;DHT22;39655;53.210;5.768;2022-12-16T17:14:30;-3276.60;94.20
53748;DHT22;39655;53.210;5.768;2022-12-16T17:17:14;-3276.60;94.20
53748;DHT22;39655;53.210;5.768;2022-12-16T17:19:58;-3276.50;94.10
53748;DHT22;39655;53.210;5.768;2022-12-16T17:22:43;-3276.50;94.10
53748;DHT22;39655;53.210;5.768;2022-12-16T17:25:27;-3276.50;94.10
53748;DHT22;39655;53.210;5.768;2022-12-16T17:28:11;-3276.40;94.10
53748;DHT22;39655;53.210;5.768;2022-12-16T17:30:56;-3276.40;94.10
53748;DHT22;39655;53.210;5.768;2022-12-16T17:33:40;-3276.40;94.10
53748;DHT22;39655;53.210;5.768;2022-12-16T17:36:25;-3276.40;94.10
53748;DHT22;39655;53.210;5.768;2022-12-16T17:39:10;-3276.30;94.10
53748;DHT22;39655;53.210;5.768;2022-12-16T17:41:54;-3276.30;94.20
53748;DHT22;39655;53.210;5.768;2022-12-16T17:44:39;-3276.30;94.20
53748;DHT22;39655;53.210;5.768;2022-12-16T17:47:23;-3276.30;94.20
53748;DHT22;39655;53.210;5.768;2022-12-16T17:50:08;-3276.20;94.20
53748;DHT22;39655;53.210;5.768;2022-12-16T17:52:55;-3276.20;94.30
53748;DHT22;39655;53.210;5.768;2022-12-16T17:55:40;-3276.20;94.50
53748;DHT22;39655;53.210;5.768;2022-12-16T17:58:32;-3276.20;94.60
53748;DHT22;39655;53.210;5.768;2022-12-16T18:01:17;-3276.20;94.60
53748;DHT22;39655;53.210;5.768;2022-12-16T18:04:02;-3276.10;94.50
53748;DHT22;39655;53.210;5.768;2022-12-16T18:06:46;-3276.10;94.50
53748;DHT22;39655;53.210;5.768;2022-12-16T18:09:30;-3276.10;94.50
53748;DHT22;39655;53.210;5.768;2022-12-16T18:12:14;-3276.00;94.50
53748;DHT22;39655;53.210;5.768;2022-12-16T18:14:59;-3276.00;94.40
53748;DHT22;39655;53.210;5.768;2022-12-16T18:17:46;-3276.00;94.50
53748;DHT22;39655;53.210;5.768;2022-12-16T18:20:30;-3276.00;94.40
53748;DHT22;39655;53.210;5.768;2022-12-16T18:23:14;-3275.90;94.40
53748;DHT22;39655;53.210;5.768;2022-12-16T18:26:01;-3275.90;94.40
53748;DHT22;39655;53.210;5.768;2022-12-16T18:28:45;-3275.90;94.40
53748;DHT22;39655;53.210;5.768;2022-12-16T18:31:30;-3275.80;94.40
53748;DHT22;39655;53.210;5.768;2022-12-16T18:34:17;-3275.80;94.50
53748;DHT22;39655;53.210;5.768;2022-12-16T18:37:01;-3275.80;94.50
53748;DHT22;39655;53.210;5.768;2022-12-16T18:39:48;-3275.80;94.50
53748;DHT22;39655;53.210;5.768;2022-12-16T18:42:32;-3275.80;94.50
53748;DHT22;39655;53.210;5.768;2022-12-16T18:45:18;-3275.80;94.50
53748;DHT22;39655;53.210;5.768;2022-12-16T18:48:02;-3275.70;94.50
53748;DHT22;39655;53.210;5.768;2022-12-16T18:50:55;-3275.70;94.50
53748;DHT22;39655;53.210;5.768;2022-12-16T18:53:42;-3275.70;94.50
53748;DHT22;39655;53.210;5.768;2022-12-16T18:56:27;-3275.60;94.40
53748;DHT22;39655;53.210;5.768;2022-12-16T18:59:11;-3275.60;94.50
53748;DHT22;39655;53.210;5.768;2022-12-16T19:01:56;-3275.70;94.70
53748;DHT22;39655;53.210;5.768;2022-12-16T19:04:40;-3275.70;94.80
53748;DHT22;39655;53.210;5.768;2022-12-16T19:07:38;-3275.70;94.80
53748;DHT22;39655;53.210;5.768;2022-12-16T19:10:34;-3275.80;94.90
53748;DHT22;39655;53.210;5.768;2022-12-16T19:13:44;-3275.90;95.10
53748;DHT22;39655;53.210;5.768;2022-12-16T19:16:34;-3276.00;95.20
53748;DHT22;39655;53.210;5.768;2022-12-16T19:31:23;-3276.40;95.50
53748;DHT22;39655;53.210;5.768;2022-12-16T19:34:11;-3276.50;95.50
53748;DHT22;39655;53.210;5.768;2022-12-16T19:37:32;-3276.60;95.60
53748;DHT22;39655;53.210;5.768;2022-12-16T21:53:19;-3276.30;96.40
53748;DHT22;39655;53.210;5.768;2022-12-16T21:56:04;-3276.30;96.40
53748;DHT22;39655;53.210;5.768;2022-12-16T21:58:48;-3276.30;96.40
53748;DHT22;39655;53.210;5.768;2022-12-16T22:01:38;-3276.30;96.30
53748;DHT22;39655;53.210;5.768;2022-12-16T22:04:22;-3276.20;96.40
53748;DHT22;39655;53.210;5.768;2022-12-16T22:07:27;-3276.30;96.40
53748;DHT22;39655;53.210;5.768;2022-12-16T22:10:12;-3276.20;96.40
53748;DHT22;39655;53.210;5.768;2022-12-16T22:12:58;-3276.20;96.40
53748;DHT22;39655;53.210;5.768;2022-12-16T22:15:42;-3276.20;96.40
53748;DHT22;39655;53.210;5.768;2022-12-16T22:18:27;-3276.30;96.40
53748;DHT22;39655;53.210;5.768;2022-12-16T22:21:11;-3276.30;96.40
53748;DHT22;39655;53.210;5.768;2022-12-16T22:24:01;-3276.20;96.40
53748;DHT22;39655;53.210;5.768;2022-12-16T22:26:54;-3276.30;96.50
53748;DHT22;39655;53.210;5.768;2022-12-16T22:29:39;-3276.30;96.50